createdAt,value
2018-04-14T00:00:30.884Z,1007.39
2018-04-14T00:01:31.304Z,1007.38
2018-04-14T00:03:25.856Z,1007.36
2018-04-14T00:04:26.286Z,1007.38
2018-04-14T00:06:20.833Z,1007.40
2018-04-14T00:07:21.258Z,1007.38
2018-04-14T00:09:15.870Z,1007.38
2018-04-14T00:10:16.295Z,1007.37
2018-04-14T00:12:10.856Z,1007.39
2018-04-14T00:13:11.278Z,1007.42
2018-04-14T00:15:05.838Z,1007.42
2018-04-14T00:16:06.255Z,1007.40
2018-04-14T00:18:00.817Z,1007.37
2018-04-14T00:19:01.242Z,1007.40
2018-04-14T00:20:55.797Z,1007.45
2018-04-14T00:21:56.274Z,1007.40
2018-04-14T00:23:50.788Z,1007.45
2018-04-14T00:24:51.215Z,1007.38
2018-04-14T00:25:51.640Z,1007.42
2018-04-14T00:26:52.079Z,1007.40
2018-04-14T00:27:52.532Z,1007.44
2018-04-14T00:28:52.944Z,1007.43
2018-04-14T00:29:53.365Z,1007.45
2018-04-14T00:30:53.786Z,1007.44
2018-04-14T00:31:54.221Z,1007.41
2018-04-14T00:32:54.642Z,1007.40
2018-04-14T00:33:55.069Z,1007.46
2018-04-14T00:34:55.499Z,1007.40
2018-04-14T00:35:55.927Z,1007.42
2018-04-14T00:36:56.363Z,1007.46
2018-04-14T00:37:56.783Z,1007.44
2018-04-14T00:38:57.212Z,1007.44
2018-04-14T00:39:57.649Z,1007.47
2018-04-14T00:40:58.070Z,1007.44
2018-04-14T00:41:58.498Z,1007.43
2018-04-14T00:42:58.927Z,1007.44
2018-04-14T00:43:59.354Z,1007.47
2018-04-14T00:44:59.789Z,1007.46
2018-04-14T00:46:00.213Z,1007.45
2018-04-14T00:47:00.642Z,1007.45
2018-04-14T00:48:01.068Z,1007.44
2018-04-14T00:49:01.502Z,1007.43
2018-04-14T00:50:01.923Z,1007.48
2018-04-14T00:51:02.350Z,1007.47
2018-04-14T00:52:02.778Z,1007.47
2018-04-14T00:53:03.206Z,1007.48
2018-04-14T00:54:03.647Z,1007.47
2018-04-14T00:55:04.061Z,1007.48
2018-04-14T00:56:04.495Z,1007.50
2018-04-14T00:57:04.919Z,1007.50
2018-04-14T00:58:05.350Z,1007.52
2018-04-14T00:59:05.777Z,1007.50
2018-04-14T01:00:06.218Z,1007.46
2018-04-14T01:01:06.636Z,1007.48
2018-04-14T01:02:07.085Z,1007.48
2018-04-14T01:03:07.502Z,1007.48
2018-04-14T01:04:07.928Z,1007.52
2018-04-14T01:05:08.350Z,1007.56
2018-04-14T01:06:08.772Z,1007.51
2018-04-14T01:07:09.213Z,1007.54
2018-04-14T01:08:09.642Z,1007.56
2018-04-14T01:09:10.056Z,1007.50
2018-04-14T01:10:10.485Z,1007.49
2018-04-14T01:11:10.916Z,1007.54
2018-04-14T01:12:11.360Z,1007.50
2018-04-14T01:13:11.774Z,1007.52
2018-04-14T01:14:12.205Z,1007.53
2018-04-14T01:15:12.667Z,1007.53
2018-04-14T01:16:13.059Z,1007.50
2018-04-14T01:17:13.482Z,1007.53
2018-04-14T01:18:13.908Z,1007.53
2018-04-14T01:19:14.336Z,1007.57
2018-04-14T01:20:14.768Z,1007.57
2018-04-14T01:21:15.195Z,1007.59
2018-04-14T01:22:15.626Z,1007.61
2018-04-14T01:23:16.055Z,1007.64
2018-04-14T01:24:16.476Z,1007.62
2018-04-14T01:25:16.910Z,1007.63
2018-04-14T01:26:17.331Z,1007.65
2018-04-14T01:27:17.757Z,1007.66
2018-04-14T01:28:18.188Z,1007.63
2018-04-14T01:29:18.615Z,1007.64
2018-04-14T01:30:19.044Z,1007.62
2018-04-14T01:31:19.483Z,1007.69
2018-04-14T01:32:19.899Z,1007.67
2018-04-14T01:33:20.327Z,1007.68
2018-04-14T01:34:20.756Z,1007.71
2018-04-14T01:35:21.183Z,1007.71
2018-04-14T01:36:21.609Z,1007.70
2018-04-14T01:37:22.037Z,1007.70
2018-04-14T01:38:22.470Z,1007.73
2018-04-14T01:39:22.894Z,1007.67
2018-04-14T01:40:23.320Z,1007.66
2018-04-14T01:41:23.752Z,1007.72
2018-04-14T01:42:24.182Z,1007.65
2018-04-14T01:43:24.605Z,1007.70
2018-04-14T01:44:25.032Z,1007.67
2018-04-14T01:45:25.462Z,1007.71
2018-04-14T01:46:25.897Z,1007.67
2018-04-14T01:47:26.314Z,1007.71
2018-04-14T01:48:26.739Z,1007.69
2018-04-14T01:49:27.169Z,1007.70
2018-04-14T01:50:27.604Z,1007.68
2018-04-14T01:51:28.024Z,1007.73
2018-04-14T01:52:28.452Z,1007.70
2018-04-14T01:53:28.880Z,1007.70
2018-04-14T01:54:29.308Z,1007.72
2018-04-14T01:55:29.734Z,1007.73
2018-04-14T01:56:30.164Z,1007.73
2018-04-14T01:57:30.589Z,1007.75
2018-04-14T01:58:31.018Z,1007.72
2018-04-14T01:59:31.450Z,1007.78
2018-04-14T02:00:31.873Z,1007.72
2018-04-14T02:01:32.305Z,1007.75
2018-04-14T02:02:32.731Z,1007.79
2018-04-14T02:03:33.155Z,1007.76
2018-04-14T02:04:33.583Z,1007.75
2018-04-14T02:05:34.019Z,1007.76
2018-04-14T02:06:34.437Z,1007.78
2018-04-14T02:07:34.874Z,1007.78
2018-04-14T02:08:35.299Z,1007.80
2018-04-14T02:09:35.726Z,1007.80
2018-04-14T02:10:36.149Z,1007.82
2018-04-14T02:11:36.583Z,1007.80
2018-04-14T02:12:37.006Z,1007.80
2018-04-14T02:13:37.430Z,1007.79
2018-04-14T02:14:37.865Z,1007.78
2018-04-14T02:15:38.296Z,1007.81
2018-04-14T02:16:38.738Z,1007.83
2018-04-14T02:17:39.146Z,1007.79
2018-04-14T02:18:39.584Z,1007.80
2018-04-14T02:19:39.998Z,1007.79
2018-04-14T02:20:40.423Z,1007.82
2018-04-14T02:21:40.855Z,1007.85
2018-04-14T02:22:41.276Z,1007.84
2018-04-14T02:23:41.710Z,1007.85
2018-04-14T02:24:42.132Z,1007.84
2018-04-14T02:25:42.565Z,1007.82
2018-04-14T02:26:42.997Z,1007.83
2018-04-14T02:27:43.418Z,1007.86
2018-04-14T02:28:43.846Z,1007.83
2018-04-14T02:29:44.338Z,1007.85
2018-04-14T02:30:44.710Z,1007.85
2018-04-14T02:31:45.126Z,1007.87
2018-04-14T02:32:45.651Z,1007.89
2018-04-14T02:33:45.978Z,1007.86
2018-04-14T02:34:46.413Z,1007.90
2018-04-14T02:35:46.849Z,1007.91
2018-04-14T02:36:47.266Z,1007.91
2018-04-14T02:37:47.693Z,1007.90
2018-04-14T02:38:48.122Z,1007.90
2018-04-14T02:39:48.548Z,1007.87
2018-04-14T02:40:48.975Z,1007.93
2018-04-14T02:41:49.409Z,1007.93
2018-04-14T02:42:49.831Z,1007.90
2018-04-14T02:43:50.256Z,1007.95
2018-04-14T02:44:50.695Z,1007.89
2018-04-14T02:45:51.113Z,1007.95
2018-04-14T02:46:51.554Z,1007.94
2018-04-14T02:47:51.972Z,1007.95
2018-04-14T02:48:52.395Z,1007.95
2018-04-14T02:49:52.821Z,1008.00
2018-04-14T02:50:53.268Z,1007.96
2018-04-14T02:51:53.681Z,1008.01
2018-04-14T02:52:54.108Z,1008.00
2018-04-14T02:53:54.541Z,1007.99
2018-04-14T02:54:54.961Z,1007.99
2018-04-14T02:55:55.392Z,1008.01
2018-04-14T02:56:55.824Z,1008.04
2018-04-14T02:57:56.244Z,1008.04
2018-04-14T02:58:56.675Z,1008.03
2018-04-14T02:59:57.100Z,1008.05
2018-04-14T03:00:57.525Z,1008.04
2018-04-14T03:01:57.959Z,1008.10
2018-04-14T03:02:58.382Z,1008.07
2018-04-14T03:03:58.812Z,1008.14
2018-04-14T03:04:59.241Z,1008.14
2018-04-14T03:05:59.670Z,1008.11
2018-04-14T03:07:00.127Z,1008.12
2018-04-14T03:08:00.583Z,1008.14
2018-04-14T03:09:00.952Z,1008.12
2018-04-14T03:10:01.376Z,1008.13
2018-04-14T03:11:01.803Z,1008.20
2018-04-14T03:12:02.246Z,1008.20
2018-04-14T03:13:02.660Z,1008.20
2018-04-14T03:14:03.089Z,1008.18
2018-04-14T03:15:03.516Z,1008.19
2018-04-14T03:16:03.953Z,1008.20
2018-04-14T03:17:04.370Z,1008.25
2018-04-14T03:18:04.796Z,1008.23
2018-04-14T03:19:05.229Z,1008.24
2018-04-14T03:20:05.655Z,1008.30
2018-04-14T03:21:06.078Z,1008.31
2018-04-14T03:22:06.509Z,1008.33
2018-04-14T03:23:06.935Z,1008.32
2018-04-14T03:24:07.364Z,1008.32
2018-04-14T03:25:07.792Z,1008.30
2018-04-14T03:26:08.217Z,1008.32
2018-04-14T03:27:08.647Z,1008.29
2018-04-14T03:28:09.073Z,1008.30
2018-04-14T03:29:09.501Z,1008.30
2018-04-14T03:30:09.937Z,1008.33
2018-04-14T03:31:10.362Z,1008.34
2018-04-14T03:32:10.784Z,1008.33
2018-04-14T03:33:11.217Z,1008.35
2018-04-14T03:34:11.640Z,1008.38
2018-04-14T03:35:12.067Z,1008.38
2018-04-14T03:36:12.497Z,1008.32
2018-04-14T03:37:12.920Z,1008.32
2018-04-14T03:38:13.349Z,1008.34
2018-04-14T03:39:13.783Z,1008.30
2018-04-14T03:40:14.207Z,1008.32
2018-04-14T03:41:14.649Z,1008.37
2018-04-14T03:42:15.063Z,1008.40
2018-04-14T03:43:15.488Z,1008.42
2018-04-14T03:44:15.915Z,1008.45
2018-04-14T03:45:16.347Z,1008.43
2018-04-14T03:46:16.770Z,1008.43
2018-04-14T03:47:17.204Z,1008.45
2018-04-14T03:48:17.633Z,1008.45
2018-04-14T03:49:18.057Z,1008.46
2018-04-14T03:50:18.485Z,1008.43
2018-04-14T03:51:18.916Z,1008.42
2018-04-14T03:52:19.343Z,1008.42
2018-04-14T03:53:19.792Z,1008.47
2018-04-14T03:54:20.195Z,1008.49
2018-04-14T03:55:20.627Z,1008.47
2018-04-14T03:56:21.049Z,1008.49
2018-04-14T03:57:21.482Z,1008.50
2018-04-14T03:58:21.913Z,1008.48
2018-04-14T03:59:22.334Z,1008.53
2018-04-14T04:00:22.766Z,1008.52
2018-04-14T04:01:23.190Z,1008.54
2018-04-14T04:02:23.623Z,1008.55
2018-04-14T04:03:24.051Z,1008.57
2018-04-14T04:04:24.476Z,1008.64
2018-04-14T04:05:24.907Z,1008.61
2018-04-14T04:06:25.334Z,1008.65
2018-04-14T04:07:25.763Z,1008.58
2018-04-14T04:08:26.191Z,1008.60
2018-04-14T04:09:26.612Z,1008.66
2018-04-14T04:10:27.043Z,1008.69
2018-04-14T04:11:27.470Z,1008.66
2018-04-14T04:12:27.902Z,1008.68
2018-04-14T04:13:28.325Z,1008.68
2018-04-14T04:14:28.759Z,1008.69
2018-04-14T04:15:29.181Z,1008.72
2018-04-14T04:16:29.614Z,1008.72
2018-04-14T04:17:30.036Z,1008.69
2018-04-14T04:18:30.464Z,1008.82
2018-04-14T04:19:30.900Z,1008.77
2018-04-14T04:20:31.322Z,1008.83
2018-04-14T04:21:31.747Z,1008.82
2018-04-14T04:22:32.179Z,1008.86
2018-04-14T04:23:32.610Z,1008.92
2018-04-14T04:24:33.031Z,1008.97
2018-04-14T04:25:33.458Z,1008.97
2018-04-14T04:26:33.886Z,1008.93
2018-04-14T04:27:34.314Z,1008.97
2018-04-14T04:28:34.750Z,1008.97
2018-04-14T04:29:35.170Z,1009.03
2018-04-14T04:30:35.598Z,1009.02
2018-04-14T04:31:36.024Z,1009.00
2018-04-14T04:32:36.462Z,1009.11
2018-04-14T04:33:36.883Z,1009.04
2018-04-14T04:34:37.314Z,1009.13
2018-04-14T04:35:37.741Z,1009.12
2018-04-14T04:36:38.164Z,1009.16
2018-04-14T04:37:38.592Z,1009.17
2018-04-14T04:38:39.020Z,1009.18
2018-04-14T04:39:39.444Z,1009.17
2018-04-14T04:40:39.872Z,1009.32
2018-04-14T04:41:40.307Z,1009.26
2018-04-14T04:42:40.730Z,1009.23
2018-04-14T04:43:41.161Z,1009.28
2018-04-14T04:44:41.583Z,1009.38
2018-04-14T04:45:42.014Z,1009.42
2018-04-14T04:46:42.439Z,1009.36
2018-04-14T04:47:42.866Z,1009.49
2018-04-14T04:48:43.304Z,1009.42
2018-04-14T04:49:43.718Z,1009.53
2018-04-14T04:50:44.157Z,1009.50
2018-04-14T04:51:44.578Z,1009.56
2018-04-14T04:52:45.011Z,1009.53
2018-04-14T04:53:45.440Z,1009.57
2018-04-14T04:54:45.861Z,1009.65
2018-04-14T04:55:46.283Z,1009.67
2018-04-14T04:56:46.713Z,1009.70
2018-04-14T04:57:47.136Z,1009.70
2018-04-14T04:58:47.569Z,1009.70
2018-04-14T04:59:47.995Z,1009.76
2018-04-14T05:00:48.423Z,1009.72
2018-04-14T05:01:48.848Z,1009.80
2018-04-14T05:02:49.277Z,1009.78
2018-04-14T05:03:49.706Z,1009.79
2018-04-14T05:04:50.128Z,1009.85
2018-04-14T05:05:50.560Z,1009.89
2018-04-14T05:06:50.984Z,1009.83
2018-04-14T05:07:51.411Z,1009.89
2018-04-14T05:08:51.839Z,1009.90
2018-04-14T05:09:52.269Z,1009.94
2018-04-14T05:10:52.693Z,1009.94
2018-04-14T05:11:53.122Z,1009.98
2018-04-14T05:12:53.548Z,1010.01
2018-04-14T05:13:53.976Z,1009.96
2018-04-14T05:14:54.399Z,1010.06
2018-04-14T05:15:54.829Z,1010.13
2018-04-14T05:16:55.253Z,1010.06
2018-04-14T05:17:55.685Z,1010.13
2018-04-14T05:18:56.110Z,1010.11
2018-04-14T05:19:56.536Z,1010.22
2018-04-14T05:20:56.962Z,1010.20
2018-04-14T05:21:57.387Z,1010.19
2018-04-14T05:22:57.825Z,1010.22
2018-04-14T05:23:58.242Z,1010.25
2018-04-14T05:24:58.673Z,1010.29
2018-04-14T05:25:59.101Z,1010.27
2018-04-14T05:26:59.541Z,1010.33
2018-04-14T05:27:59.957Z,1010.40
2018-04-14T05:29:00.382Z,1010.38
2018-04-14T05:30:00.819Z,1010.43
2018-04-14T05:31:01.236Z,1010.42
2018-04-14T05:32:01.671Z,1010.46
2018-04-14T05:33:02.092Z,1010.48
2018-04-14T05:34:02.523Z,1010.49
2018-04-14T05:35:02.948Z,1010.55
2018-04-14T05:36:03.376Z,1010.50
2018-04-14T05:37:03.800Z,1010.54
2018-04-14T05:38:04.228Z,1010.58
2018-04-14T05:39:04.657Z,1010.58
2018-04-14T05:40:05.084Z,1010.57
2018-04-14T05:41:05.509Z,1010.65
2018-04-14T05:42:05.935Z,1010.66
2018-04-14T05:43:06.363Z,1010.60
2018-04-14T05:44:06.797Z,1010.61
2018-04-14T05:45:07.225Z,1010.69
2018-04-14T05:46:07.651Z,1010.69
2018-04-14T05:47:08.079Z,1010.72
2018-04-14T05:48:08.499Z,1010.74
2018-04-14T05:49:08.936Z,1010.75
2018-04-14T05:50:09.368Z,1010.84
2018-04-14T05:51:09.789Z,1010.75
2018-04-14T05:52:10.222Z,1010.80
2018-04-14T05:53:10.644Z,1010.84
2018-04-14T05:54:11.074Z,1010.82
2018-04-14T05:55:11.500Z,1010.82
2018-04-14T05:56:11.928Z,1010.89
2018-04-14T05:57:12.353Z,1010.88
2018-04-14T05:58:12.781Z,1010.90
2018-04-14T05:59:13.211Z,1010.89
2018-04-14T06:00:13.671Z,1010.90
2018-04-14T06:01:14.138Z,1010.97
2018-04-14T06:02:14.489Z,1010.93
2018-04-14T06:03:14.921Z,1011.08
2018-04-14T06:04:15.346Z,1010.97
2018-04-14T06:05:15.778Z,1011.00
2018-04-14T06:06:16.201Z,1011.01
2018-04-14T06:07:16.632Z,1011.02
2018-04-14T06:08:17.056Z,1011.06
2018-04-14T06:09:17.509Z,1011.06
2018-04-14T06:10:17.909Z,1011.12
2018-04-14T06:11:18.353Z,1011.20
2018-04-14T06:12:18.768Z,1011.15
2018-04-14T06:13:19.197Z,1011.15
2018-04-14T06:14:19.626Z,1011.12
2018-04-14T06:15:20.052Z,1011.18
2018-04-14T06:16:20.483Z,1011.15
2018-04-14T06:17:20.907Z,1011.20
2018-04-14T06:18:21.340Z,1011.18
2018-04-14T06:19:21.764Z,1011.24
2018-04-14T06:20:22.191Z,1011.30
2018-04-14T06:21:22.613Z,1011.28
2018-04-14T06:22:23.083Z,1011.25
2018-04-14T06:23:23.473Z,1011.24
2018-04-14T06:24:23.910Z,1011.27
2018-04-14T06:25:24.359Z,1011.33
2018-04-14T06:26:24.763Z,1011.36
2018-04-14T06:27:25.253Z,1011.34
2018-04-14T06:28:25.645Z,1011.40
2018-04-14T06:29:26.093Z,1011.40
2018-04-14T06:30:26.497Z,1011.39
2018-04-14T06:31:26.922Z,1011.43
2018-04-14T06:32:27.348Z,1011.39
2018-04-14T06:33:27.864Z,1011.42
2018-04-14T06:34:28.203Z,1011.44
2018-04-14T06:35:28.632Z,1011.46
2018-04-14T06:36:29.115Z,1011.47
2018-04-14T06:37:29.495Z,1011.59
2018-04-14T06:38:29.943Z,1011.56
2018-04-14T06:39:30.380Z,1011.56
2018-04-14T06:40:30.762Z,1011.61
2018-04-14T06:41:31.214Z,1011.61
2018-04-14T06:42:31.661Z,1011.63
2018-04-14T06:43:32.044Z,1011.60
2018-04-14T06:44:32.467Z,1011.64
2018-04-14T06:45:32.919Z,1011.63
2018-04-14T06:46:33.324Z,1011.68
2018-04-14T06:47:33.781Z,1011.69
2018-04-14T06:48:34.182Z,1011.70
2018-04-14T06:49:34.613Z,1011.77
2018-04-14T06:50:35.094Z,1011.78
2018-04-14T06:51:35.500Z,1011.72
2018-04-14T06:52:35.928Z,1011.81
2018-04-14T06:53:36.331Z,1011.83
2018-04-14T06:54:36.788Z,1011.83
2018-04-14T06:55:37.181Z,1011.86
2018-04-14T06:56:37.639Z,1011.90
2018-04-14T06:57:38.037Z,1011.96
2018-04-14T06:58:38.484Z,1011.93
2018-04-14T06:59:38.913Z,1011.98
2018-04-14T07:00:39.328Z,1012.00
2018-04-14T07:01:39.804Z,1011.97
2018-04-14T07:02:40.184Z,1012.02
2018-04-14T07:03:40.617Z,1011.95
2018-04-14T07:04:41.055Z,1012.01
2018-04-14T07:05:41.472Z,1011.97
2018-04-14T07:06:41.941Z,1012.06
2018-04-14T07:07:42.335Z,1012.10
2018-04-14T07:08:42.763Z,1012.15
2018-04-14T07:09:43.215Z,1012.16
2018-04-14T07:10:43.612Z,1012.13
2018-04-14T07:11:44.044Z,1012.10
2018-04-14T07:12:44.508Z,1012.14
2018-04-14T07:13:44.907Z,1012.16
2018-04-14T07:14:45.329Z,1012.17
2018-04-14T07:15:45.768Z,1012.16
2018-04-14T07:16:46.187Z,1012.23
2018-04-14T07:17:46.631Z,1012.20
2018-04-14T07:18:47.049Z,1012.31
2018-04-14T07:19:47.522Z,1012.23
2018-04-14T07:20:48.019Z,1012.34
2018-04-14T07:21:48.348Z,1012.26
2018-04-14T07:22:48.813Z,1012.30
2018-04-14T07:23:49.227Z,1012.26
2018-04-14T07:24:49.662Z,1012.29
2018-04-14T07:25:50.074Z,1012.37
2018-04-14T07:26:50.526Z,1012.36
2018-04-14T07:27:50.922Z,1012.34
2018-04-14T07:28:51.389Z,1012.43
2018-04-14T07:29:51.788Z,1012.40
2018-04-14T07:30:52.228Z,1012.43
2018-04-14T07:31:52.649Z,1012.47
2018-04-14T07:32:53.099Z,1012.43
2018-04-14T07:33:53.522Z,1012.47
2018-04-14T07:34:53.941Z,1012.54
2018-04-14T07:35:54.371Z,1012.57
2018-04-14T07:36:54.813Z,1012.50
2018-04-14T07:37:55.231Z,1012.55
2018-04-14T07:38:55.688Z,1012.57
2018-04-14T07:39:56.112Z,1012.63
2018-04-14T07:40:56.532Z,1012.64
2018-04-14T07:41:56.989Z,1012.68
2018-04-14T07:42:57.479Z,1012.66
2018-04-14T07:43:57.835Z,1012.71
2018-04-14T07:44:58.263Z,1012.68
2018-04-14T07:45:58.702Z,1012.69
2018-04-14T07:46:59.153Z,1012.71
2018-04-14T07:47:59.549Z,1012.74
2018-04-14T07:48:59.982Z,1012.67
2018-04-14T07:50:00.430Z,1012.73
2018-04-14T07:51:00.847Z,1012.74
2018-04-14T07:52:01.297Z,1012.84
2018-04-14T07:53:01.737Z,1012.77
2018-04-14T07:54:02.161Z,1012.78
2018-04-14T07:55:02.603Z,1012.83
2018-04-14T07:56:03.031Z,1012.82
2018-04-14T07:57:03.452Z,1012.86
2018-04-14T07:58:03.903Z,1012.84
2018-04-14T07:59:04.351Z,1012.92
2018-04-14T08:00:04.729Z,1012.90
2018-04-14T08:01:05.181Z,1012.83
2018-04-14T08:02:05.626Z,1012.89
2018-04-14T08:03:06.028Z,1012.87
2018-04-14T08:04:06.488Z,1012.89
2018-04-14T08:05:06.884Z,1012.98
2018-04-14T08:06:07.328Z,1012.97
2018-04-14T08:07:07.756Z,1012.97
2018-04-14T08:08:08.196Z,1012.98
2018-04-14T08:09:08.646Z,1013.03
2018-04-14T08:10:09.054Z,1012.98
2018-04-14T08:11:09.493Z,1013.05
2018-04-14T08:12:09.965Z,1013.04
2018-04-14T08:13:10.371Z,1013.04
2018-04-14T08:14:10.808Z,1013.00
2018-04-14T08:15:11.220Z,1013.06
2018-04-14T08:16:11.647Z,1013.08
2018-04-14T08:17:12.082Z,1013.12
2018-04-14T08:18:12.537Z,1013.16
2018-04-14T08:19:12.938Z,1013.17
2018-04-14T08:20:13.378Z,1013.16
2018-04-14T08:21:13.816Z,1013.19
2018-04-14T08:22:14.235Z,1013.22
2018-04-14T08:23:14.712Z,1013.18
2018-04-14T08:24:15.101Z,1013.17
2018-04-14T08:25:15.529Z,1013.23
2018-04-14T08:26:15.985Z,1013.16
2018-04-14T08:27:16.395Z,1013.24
2018-04-14T08:28:16.828Z,1013.35
2018-04-14T08:29:17.267Z,1013.38
2018-04-14T08:30:17.722Z,1013.28
2018-04-14T08:31:18.137Z,1013.31
2018-04-14T08:32:18.585Z,1013.31
2018-04-14T08:33:18.974Z,1013.34
2018-04-14T08:34:19.450Z,1013.33
2018-04-14T08:35:19.848Z,1013.35
2018-04-14T08:36:20.275Z,1013.38
2018-04-14T08:37:20.794Z,1013.35
2018-04-14T08:38:21.122Z,1013.35
2018-04-14T08:39:21.595Z,1013.35
2018-04-14T08:40:21.985Z,1013.33
2018-04-14T08:41:22.436Z,1013.33
2018-04-14T08:42:22.849Z,1013.29
2018-04-14T08:43:23.278Z,1013.25
2018-04-14T08:44:23.713Z,1013.31
2018-04-14T08:45:24.145Z,1013.32
2018-04-14T08:46:24.575Z,1013.28
2018-04-14T08:47:25.017Z,1013.31
2018-04-14T08:48:25.458Z,1013.36
2018-04-14T08:49:25.903Z,1013.34
2018-04-14T08:50:26.344Z,1013.40
2018-04-14T08:51:26.781Z,1013.36
2018-04-14T08:52:27.195Z,1013.30
2018-04-14T08:53:27.650Z,1013.33
2018-04-14T08:54:28.054Z,1013.35
2018-04-14T08:55:28.485Z,1013.38
2018-04-14T08:56:28.913Z,1013.38
2018-04-14T08:57:29.352Z,1013.40
2018-04-14T08:58:29.846Z,1013.40
2018-04-14T08:59:30.218Z,1013.44
2018-04-14T09:00:30.643Z,1013.45
2018-04-14T09:01:31.082Z,1013.39
2018-04-14T09:02:31.532Z,1013.48
2018-04-14T09:03:31.966Z,1013.48
2018-04-14T09:04:32.403Z,1013.48
2018-04-14T09:05:32.835Z,1013.48
2018-04-14T09:06:33.257Z,1013.46
2018-04-14T09:07:33.703Z,1013.44
2018-04-14T09:08:34.132Z,1013.45
2018-04-14T09:09:34.568Z,1013.43
2018-04-14T09:10:34.969Z,1013.41
2018-04-14T09:11:35.442Z,1013.43
2018-04-14T09:12:35.860Z,1013.56
2018-04-14T09:13:36.271Z,1013.55
2018-04-14T09:14:36.711Z,1013.52
2018-04-14T09:15:37.198Z,1013.62
2018-04-14T09:16:37.590Z,1013.59
2018-04-14T09:17:38.011Z,1013.62
2018-04-14T09:18:38.443Z,1013.64
2018-04-14T09:19:38.880Z,1013.72
2018-04-14T09:20:39.313Z,1013.66
2018-04-14T09:21:39.744Z,1013.68
2018-04-14T09:22:40.173Z,1013.63
2018-04-14T09:23:40.604Z,1013.61
2018-04-14T09:24:41.040Z,1013.61
2018-04-14T09:25:41.487Z,1013.71
2018-04-14T09:26:41.899Z,1013.69
2018-04-14T09:27:42.326Z,1013.69
2018-04-14T09:28:42.766Z,1013.68
2018-04-14T09:29:43.238Z,1013.68
2018-04-14T09:30:43.631Z,1013.67
2018-04-14T09:31:44.055Z,1013.66
2018-04-14T09:32:44.514Z,1013.67
2018-04-14T09:33:44.919Z,1013.68
2018-04-14T09:34:45.389Z,1013.64
2018-04-14T09:35:45.824Z,1013.65
2018-04-14T09:36:46.228Z,1013.70
2018-04-14T09:37:46.720Z,1013.67
2018-04-14T09:38:47.110Z,1013.69
2018-04-14T09:39:47.529Z,1013.72
2018-04-14T09:40:48.005Z,1013.71
2018-04-14T09:41:48.386Z,1013.78
2018-04-14T09:42:48.831Z,1013.75
2018-04-14T09:43:49.272Z,1013.79
2018-04-14T09:44:49.699Z,1013.73
2018-04-14T09:45:50.115Z,1013.81
2018-04-14T09:46:50.558Z,1013.77
2018-04-14T09:47:50.994Z,1013.78
2018-04-14T09:48:51.420Z,1013.87
2018-04-14T09:49:51.862Z,1013.79
2018-04-14T09:50:52.313Z,1013.82
2018-04-14T09:51:52.726Z,1013.93
2018-04-14T09:52:53.157Z,1013.90
2018-04-14T09:53:53.599Z,1013.90
2018-04-14T09:54:54.043Z,1013.91
2018-04-14T09:55:54.457Z,1013.90
2018-04-14T09:56:54.935Z,1013.89
2018-04-14T09:57:55.368Z,1013.98
2018-04-14T09:58:55.802Z,1013.92
2018-04-14T09:59:56.222Z,1013.89
2018-04-14T10:00:56.647Z,1013.93
2018-04-14T10:01:57.093Z,1013.89
2018-04-14T10:02:57.525Z,1013.92
2018-04-14T10:03:57.956Z,1013.84
2018-04-14T10:04:58.411Z,1014.00
2018-04-14T10:05:58.820Z,1013.93
2018-04-14T10:06:59.267Z,1013.91
2018-04-14T10:07:59.696Z,1013.94
2018-04-14T10:09:00.128Z,1013.91
2018-04-14T10:10:00.561Z,1013.90
2018-04-14T10:11:01.004Z,1013.97
2018-04-14T10:12:01.442Z,1013.81
2018-04-14T10:13:01.871Z,1013.90
2018-04-14T10:14:02.294Z,1013.94
2018-04-14T10:15:02.725Z,1014.02
2018-04-14T10:16:03.165Z,1014.00
2018-04-14T10:17:03.603Z,1013.97
2018-04-14T10:18:04.028Z,1013.98
2018-04-14T10:19:04.476Z,1014.02
2018-04-14T10:20:04.899Z,1014.05
2018-04-14T10:21:05.333Z,1014.03
2018-04-14T10:22:05.767Z,1014.01
2018-04-14T10:23:06.201Z,1013.95
2018-04-14T10:24:06.663Z,1013.96
2018-04-14T10:25:07.098Z,1013.96
2018-04-14T10:26:07.506Z,1013.96
2018-04-14T10:27:07.994Z,1014.03
2018-04-14T10:28:08.392Z,1014.09
2018-04-14T10:29:08.809Z,1014.11
2018-04-14T10:30:09.272Z,1014.02
2018-04-14T10:31:09.688Z,1014.04
2018-04-14T10:32:10.112Z,1014.01
2018-04-14T10:33:10.549Z,1014.06
2018-04-14T10:34:10.983Z,1014.05
2018-04-14T10:35:11.435Z,1013.97
2018-04-14T10:36:11.857Z,1014.08
2018-04-14T10:37:12.319Z,1014.03
2018-04-14T10:38:12.756Z,1014.06
2018-04-14T10:39:13.213Z,1014.04
2018-04-14T10:40:13.675Z,1014.12
2018-04-14T10:41:14.042Z,1014.11
2018-04-14T10:42:14.503Z,1014.08
2018-04-14T10:43:14.924Z,1014.05
2018-04-14T10:44:15.400Z,1014.08
2018-04-14T10:45:15.822Z,1014.06
2018-04-14T10:46:16.231Z,1014.04
2018-04-14T10:47:16.740Z,1014.14
2018-04-14T10:48:17.106Z,1014.07
2018-04-14T10:49:17.587Z,1014.07
2018-04-14T10:50:17.988Z,1014.06
2018-04-14T10:51:18.447Z,1014.06
2018-04-14T10:52:18.863Z,1014.07
2018-04-14T10:53:19.298Z,1014.07
2018-04-14T10:54:19.743Z,1014.15
2018-04-14T10:55:20.177Z,1014.13
2018-04-14T10:56:20.631Z,1014.16
2018-04-14T10:57:21.056Z,1014.15
2018-04-14T10:58:21.498Z,1014.13
2018-04-14T10:59:21.936Z,1014.09
2018-04-14T11:00:22.383Z,1014.14
2018-04-14T11:01:22.801Z,1014.21
2018-04-14T11:02:23.248Z,1014.15
2018-04-14T11:03:23.700Z,1014.16
2018-04-14T11:04:24.123Z,1014.17
2018-04-14T11:05:24.567Z,1014.18
2018-04-14T11:06:25.003Z,1014.19
2018-04-14T11:07:25.441Z,1014.12
2018-04-14T11:08:25.892Z,1014.16
2018-04-14T11:09:26.321Z,1014.14
2018-04-14T11:10:26.768Z,1014.15
2018-04-14T11:11:27.196Z,1014.15
2018-04-14T11:12:27.642Z,1014.24
2018-04-14T11:13:28.095Z,1014.17
2018-04-14T11:14:28.518Z,1014.18
2018-04-14T11:15:28.988Z,1014.13
2018-04-14T11:16:29.389Z,1014.13
2018-04-14T11:17:29.836Z,1014.11
2018-04-14T11:18:30.298Z,1014.10
2018-04-14T11:19:30.712Z,1014.12
2018-04-14T11:20:31.285Z,1014.08
2018-04-14T11:21:31.610Z,1014.08
2018-04-14T11:22:32.056Z,1014.05
2018-04-14T11:23:32.472Z,1014.06
2018-04-14T11:24:32.924Z,1014.03
2018-04-14T11:25:33.363Z,1014.09
2018-04-14T11:26:33.801Z,1014.04
2018-04-14T11:27:34.249Z,1014.03
2018-04-14T11:28:34.692Z,1014.10
2018-04-14T11:29:35.141Z,1014.07
2018-04-14T11:30:35.592Z,1014.06
2018-04-14T11:31:36.017Z,1014.04
2018-04-14T11:32:36.456Z,1014.06
2018-04-14T11:33:36.930Z,1014.08
2018-04-14T11:34:37.347Z,1014.08
2018-04-14T11:35:37.801Z,1014.06
2018-04-14T11:36:38.230Z,1014.12
2018-04-14T11:37:38.678Z,1014.05
2018-04-14T11:38:39.118Z,1014.08
2018-04-14T11:39:39.542Z,1014.11
2018-04-14T11:40:39.984Z,1014.10
2018-04-14T11:41:40.426Z,1014.08
2018-04-14T11:42:40.858Z,1014.13
2018-04-14T11:43:41.301Z,1014.10
2018-04-14T11:44:41.734Z,1014.12
2018-04-14T11:45:42.177Z,1014.19
2018-04-14T11:46:42.620Z,1014.18
2018-04-14T11:47:43.053Z,1014.20
2018-04-14T11:48:43.496Z,1014.20
2018-04-14T11:49:43.931Z,1014.21
2018-04-14T11:50:44.370Z,1014.15
2018-04-14T11:51:44.818Z,1014.20
2018-04-14T11:52:45.242Z,1014.17
2018-04-14T11:53:45.679Z,1014.17
2018-04-14T11:54:46.133Z,1014.18
2018-04-14T11:55:46.614Z,1014.25
2018-04-14T11:56:47.000Z,1014.26
2018-04-14T11:57:47.438Z,1014.17
2018-04-14T11:58:47.876Z,1014.15
2018-04-14T11:59:48.310Z,1014.18
2018-04-14T12:00:48.744Z,1014.17
2018-04-14T12:01:49.184Z,1014.21
2018-04-14T12:02:49.627Z,1014.19
2018-04-14T12:03:50.063Z,1014.18
2018-04-14T12:04:50.498Z,1014.18
2018-04-14T12:05:50.935Z,1014.16
2018-04-14T12:06:51.377Z,1014.11
2018-04-14T12:07:51.807Z,1014.17
2018-04-14T12:08:52.244Z,1014.09
2018-04-14T12:09:52.708Z,1014.09
2018-04-14T12:10:53.128Z,1014.15
2018-04-14T12:11:53.551Z,1014.19
2018-04-14T12:12:53.987Z,1014.19
2018-04-14T12:13:54.427Z,1014.20
2018-04-14T12:14:54.875Z,1014.25
2018-04-14T12:15:55.347Z,1014.24
2018-04-14T12:16:55.767Z,1014.27
2018-04-14T12:17:56.167Z,1014.35